sensor_id;sensor_type;location;lat;lon;timestamp;P1;durP1;ratioP1;P2;durP2;ratioP2
55815;SDS011;41744;52.404;16.942;2022-08-20T00:00:19;31.15;;;20.48;;
55815;SDS011;41744;52.404;16.942;2022-08-20T00:02:47;32.28;;;21.55;;
55815;SDS011;41744;52.404;16.942;2022-08-20T00:05:15;31.50;;;21.95;;
55815;SDS011;41744;52.404;16.942;2022-08-20T00:07:41;31.50;;;21.35;;
55815;SDS011;41744;52.404;16.942;2022-08-20T00:10:07;32.40;;;21.67;;
55815;SDS011;41744;52.404;16.942;2022-08-20T00:12:34;31.13;;;21.02;;
55815;SDS011;41744;52.404;16.942;2022-08-20T00:15:00;28.90;;;20.90;;
55815;SDS011;41744;52.404;16.942;2022-08-20T00:17:27;31.48;;;21.17;;
55815;SDS011;41744;52.404;16.942;2022-08-20T00:20:00;34.78;;;21.23;;
55815;SDS011;41744;52.404;16.942;2022-08-20T00:22:26;30.42;;;20.88;;
55815;SDS011;41744;52.404;16.942;2022-08-20T00:24:52;33.42;;;21.90;;
55815;SDS011;41744;52.404;16.942;2022-08-20T00:27:18;31.98;;;21.65;;
55815;SDS011;41744;52.404;16.942;2022-08-20T00:29:44;33.05;;;21.23;;
55815;SDS011;41744;52.404;16.942;2022-08-20T00:32:10;34.13;;;21.63;;
55815;SDS011;41744;52.404;16.942;2022-08-20T00:34:36;36.65;;;21.85;;
55815;SDS011;41744;52.404;16.942;2022-08-20T00:37:02;31.48;;;21.92;;
55815;SDS011;41744;52.404;16.942;2022-08-20T00:39:28;32.63;;;22.73;;
55815;SDS011;41744;52.404;16.942;2022-08-20T00:41:54;36.05;;;22.50;;
55815;SDS011;41744;52.404;16.942;2022-08-20T00:44:20;34.22;;;22.92;;
55815;SDS011;41744;52.404;16.942;2022-08-20T00:46:47;32.92;;;22.65;;
55815;SDS011;41744;52.404;16.942;2022-08-20T00:49:21;32.58;;;20.70;;
55815;SDS011;41744;52.404;16.942;2022-08-20T00:51:53;34.95;;;21.55;;
55815;SDS011;41744;52.404;16.942;2022-08-20T00:56:49;31.75;;;21.67;;
55815;SDS011;41744;52.404;16.942;2022-08-20T00:59:19;37.58;;;22.58;;
55815;SDS011;41744;52.404;16.942;2022-08-20T01:01:46;34.78;;;24.00;;
55815;SDS011;41744;52.404;16.942;2022-08-20T01:04:12;30.45;;;21.85;;
55815;SDS011;41744;52.404;16.942;2022-08-20T01:06:38;31.85;;;22.40;;
55815;SDS011;41744;52.404;16.942;2022-08-20T01:09:05;34.35;;;23.23;;
55815;SDS011;41744;52.404;16.942;2022-08-20T01:11:32;38.20;;;23.05;;
55815;SDS011;41744;52.404;16.942;2022-08-20T01:14:00;37.47;;;24.83;;
55815;SDS011;41744;52.404;16.942;2022-08-20T01:16:39;34.60;;;22.83;;
55815;SDS011;41744;52.404;16.942;2022-08-20T01:19:06;33.95;;;23.27;;
55815;SDS011;41744;52.404;16.942;2022-08-20T01:21:34;35.55;;;23.73;;
55815;SDS011;41744;52.404;16.942;2022-08-20T01:24:14;35.45;;;23.30;;
55815;SDS011;41744;52.404;16.942;2022-08-20T01:26:43;40.22;;;23.52;;
55815;SDS011;41744;52.404;16.942;2022-08-20T01:29:13;33.60;;;22.98;;
55815;SDS011;41744;52.404;16.942;2022-08-20T01:31:40;35.25;;;24.10;;
55815;SDS011;41744;52.404;16.942;2022-08-20T01:34:10;33.70;;;23.20;;
55815;SDS011;41744;52.404;16.942;2022-08-20T01:36:42;36.63;;;22.35;;
55815;SDS011;41744;52.404;16.942;2022-08-20T01:39:09;35.83;;;23.27;;
55815;SDS011;41744;52.404;16.942;2022-08-20T01:44:21;35.65;;;22.35;;
55815;SDS011;41744;52.404;16.942;2022-08-20T01:46:48;32.60;;;22.58;;
55815;SDS011;41744;52.404;16.942;2022-08-20T01:49:19;33.33;;;23.05;;
55815;SDS011;41744;52.404;16.942;2022-08-20T01:51:45;34.75;;;23.30;;
55815;SDS011;41744;52.404;16.942;2022-08-20T01:54:12;34.70;;;23.70;;
55815;SDS011;41744;52.404;16.942;2022-08-20T01:57:13;34.97;;;23.90;;
55815;SDS011;41744;52.404;16.942;2022-08-20T01:59:31;35.42;;;23.38;;
55815;SDS011;41744;52.404;16.942;2022-08-20T02:01:57;38.38;;;24.13;;
55815;SDS011;41744;52.404;16.942;2022-08-20T02:04:24;35.53;;;23.25;;
55815;SDS011;41744;52.404;16.942;2022-08-20T02:06:54;34.67;;;23.30;;
55815;SDS011;41744;52.404;16.942;2022-08-20T02:09:21;34.45;;;23.42;;
55815;SDS011;41744;52.404;16.942;2022-08-20T02:11:47;41.25;;;24.05;;
55815;SDS011;41744;52.404;16.942;2022-08-20T02:14:14;32.83;;;22.98;;
55815;SDS011;41744;52.404;16.942;2022-08-20T02:16:42;33.88;;;22.55;;
55815;SDS011;41744;52.404;16.942;2022-08-20T02:19:12;34.60;;;22.92;;
55815;SDS011;41744;52.404;16.942;2022-08-20T02:21:40;35.08;;;22.88;;
55815;SDS011;41744;52.404;16.942;2022-08-20T02:24:08;34.47;;;23.80;;
55815;SDS011;41744;52.404;16.942;2022-08-20T02:26:34;34.83;;;23.17;;
55815;SDS011;41744;52.404;16.942;2022-08-20T02:29:02;37.58;;;22.27;;
55815;SDS011;41744;52.404;16.942;2022-08-20T02:31:28;33.42;;;22.50;;
55815;SDS011;41744;52.404;16.942;2022-08-20T02:33:55;34.00;;;22.42;;
55815;SDS011;41744;52.404;16.942;2022-08-20T02:36:21;30.77;;;22.35;;
55815;SDS011;41744;52.404;16.942;2022-08-20T02:38:47;32.22;;;21.50;;
55815;SDS011;41744;52.404;16.942;2022-08-20T02:41:13;33.72;;;22.15;;
55815;SDS011;41744;52.404;16.942;2022-08-20T02:43:39;33.47;;;21.48;;
55815;SDS011;41744;52.404;16.942;2022-08-20T02:46:05;35.13;;;21.67;;
55815;SDS011;41744;52.404;16.942;2022-08-20T02:48:32;33.35;;;21.23;;
55815;SDS011;41744;52.404;16.942;2022-08-20T02:50:59;33.33;;;21.00;;
55815;SDS011;41744;52.404;16.942;2022-08-20T02:53:26;33.83;;;22.25;;
55815;SDS011;41744;52.404;16.942;2022-08-20T02:55:53;32.97;;;22.48;;
55815;SDS011;41744;52.404;16.942;2022-08-20T02:58:19;32.72;;;20.75;;
55815;SDS011;41744;52.404;16.942;2022-08-20T03:00:45;32.40;;;21.05;;
55815;SDS011;41744;52.404;16.942;2022-08-20T03:03:12;32.30;;;21.88;;
55815;SDS011;41744;52.404;16.942;2022-08-20T03:05:39;30.65;;;20.60;;
55815;SDS011;41744;52.404;16.942;2022-08-20T03:08:08;31.98;;;20.50;;
55815;SDS011;41744;52.404;16.942;2022-08-20T03:10:35;30.80;;;20.58;;
55815;SDS011;41744;52.404;16.942;2022-08-20T03:13:01;35.85;;;21.60;;
55815;SDS011;41744;52.404;16.942;2022-08-20T03:15:28;29.35;;;20.73;;
55815;SDS011;41744;52.404;16.942;2022-08-20T03:17:54;34.20;;;21.75;;
55815;SDS011;41744;52.404;16.942;2022-08-20T03:20:21;31.20;;;21.08;;
55815;SDS011;41744;52.404;16.942;2022-08-20T03:22:47;33.67;;;21.75;;
55815;SDS011;41744;52.404;16.942;2022-08-20T03:25:13;34.92;;;21.77;;
55815;SDS011;41744;52.404;16.942;2022-08-20T03:27:40;31.13;;;20.70;;
55815;SDS011;41744;52.404;16.942;2022-08-20T03:30:07;29.85;;;20.33;;
55815;SDS011;41744;52.404;16.942;2022-08-20T03:32:34;36.95;;;21.75;;
55815;SDS011;41744;52.404;16.942;2022-08-20T03:35:00;29.88;;;20.02;;
55815;SDS011;41744;52.404;16.942;2022-08-20T03:37:30;31.98;;;20.92;;
55815;SDS011;41744;52.404;16.942;2022-08-20T03:39:57;35.63;;;21.55;;
55815;SDS011;41744;52.404;16.942;2022-08-20T03:42:23;32.45;;;21.55;;
55815;SDS011;41744;52.404;16.942;2022-08-20T03:44:49;37.25;;;21.95;;
55815;SDS011;41744;52.404;16.942;2022-08-20T03:47:15;32.45;;;21.75;;
55815;SDS011;41744;52.404;16.942;2022-08-20T03:49:41;34.42;;;21.83;;
55815;SDS011;41744;52.404;16.942;2022-08-20T03:52:07;34.35;;;21.10;;
55815;SDS011;41744;52.404;16.942;2022-08-20T03:54:33;35.53;;;21.08;;
55815;SDS011;41744;52.404;16.942;2022-08-20T03:57:00;31.05;;;21.27;;
55815;SDS011;41744;52.404;16.942;2022-08-20T03:59:27;35.17;;;21.58;;
55815;SDS011;41744;52.404;16.942;2022-08-20T04:01:53;33.80;;;20.77;;
55815;SDS011;41744;52.404;16.942;2022-08-20T04:04:20;31.00;;;20.95;;
55815;SDS011;41744;52.404;16.942;2022-08-20T04:06:46;29.30;;;20.23;;
55815;SDS011;41744;52.404;16.942;2022-08-20T04:09:12;27.65;;;19.23;;
55815;SDS011;41744;52.404;16.942;2022-08-20T04:11:39;26.25;;;18.65;;
55815;SDS011;41744;52.404;16.942;2022-08-20T04:14:05;30.63;;;20.08;;
55815;SDS011;41744;52.404;16.942;2022-08-20T04:16:31;27.88;;;19.33;;
55815;SDS011;41744;52.404;16.942;2022-08-20T04:18:57;30.38;;;20.10;;
55815;SDS011;41744;52.404;16.942;2022-08-20T04:21:23;30.77;;;20.50;;
55815;SDS011;41744;52.404;16.942;2022-08-20T04:23:49;31.90;;;20.50;;
55815;SDS011;41744;52.404;16.942;2022-08-20T04:26:16;32.65;;;20.20;;
55815;SDS011;41744;52.404;16.942;2022-08-20T04:28:43;32.35;;;21.50;;
55815;SDS011;41744;52.404;16.942;2022-08-20T04:31:09;32.88;;;20.85;;
55815;SDS011;41744;52.404;16.942;2022-08-20T04:33:38;30.52;;;20.80;;
55815;SDS011;41744;52.404;16.942;2022-08-20T04:36:06;35.80;;;21.92;;
55815;SDS011;41744;52.404;16.942;2022-08-20T04:38:33;29.70;;;20.33;;
55815;SDS011;41744;52.404;16.942;2022-08-20T04:40:59;34.50;;;20.80;;
55815;SDS011;41744;52.404;16.942;2022-08-20T04:43:32;36.42;;;22.13;;
55815;SDS011;41744;52.404;16.942;2022-08-20T04:45:59;35.85;;;21.70;;
55815;SDS011;41744;52.404;16.942;2022-08-20T04:48:26;29.15;;;20.77;;
55815;SDS011;41744;52.404;16.942;2022-08-20T04:50:53;34.42;;;21.63;;
55815;SDS011;41744;52.404;16.942;2022-08-20T04:53:21;33.88;;;21.48;;
55815;SDS011;41744;52.404;16.942;2022-08-20T04:55:47;29.02;;;20.08;;
55815;SDS011;41744;52.404;16.942;2022-08-20T04:58:15;31.20;;;21.00;;
55815;SDS011;41744;52.404;16.942;2022-08-20T05:00:52;31.55;;;21.08;;
55815;SDS011;41744;52.404;16.942;2022-08-20T05:03:19;28.90;;;20.55;;
55815;SDS011;41744;52.404;16.942;2022-08-20T05:05:45;33.78;;;20.92;;
55815;SDS011;41744;52.404;16.942;2022-08-20T05:08:11;34.95;;;21.85;;
55815;SDS011;41744;52.404;16.942;2022-08-20T05:10:39;33.92;;;21.25;;
55815;SDS011;41744;52.404;16.942;2022-08-20T05:13:05;36.63;;;22.20;;
55815;SDS011;41744;52.404;16.942;2022-08-20T05:15:32;31.75;;;21.15;;
55815;SDS011;41744;52.404;16.942;2022-08-20T05:17:59;34.72;;;21.85;;
55815;SDS011;41744;52.404;16.942;2022-08-20T05:20:26;34.13;;;21.77;;
55815;SDS011;41744;52.404;16.942;2022-08-20T05:22:55;35.22;;;20.77;;
55815;SDS011;41744;52.404;16.942;2022-08-20T05:25:21;33.28;;;20.92;;
55815;SDS011;41744;52.404;16.942;2022-08-20T05:27:47;33.05;;;20.70;;
55815;SDS011;41744;52.404;16.942;2022-08-20T05:30:13;31.63;;;20.48;;
55815;SDS011;41744;52.404;16.942;2022-08-20T05:32:39;31.52;;;21.55;;
55815;SDS011;41744;52.404;16.942;2022-08-20T05:35:06;34.63;;;22.45;;
55815;SDS011;41744;52.404;16.942;2022-08-20T05:37:37;34.03;;;21.70;;
55815;SDS011;41744;52.404;16.942;2022-08-20T05:40:07;35.42;;;21.23;;
55815;SDS011;41744;52.404;16.942;2022-08-20T05:42:34;28.92;;;19.85;;
55815;SDS011;41744;52.404;16.942;2022-08-20T05:45:00;32.72;;;21.63;;
55815;SDS011;41744;52.404;16.942;2022-08-20T05:47:26;34.53;;;21.83;;
55815;SDS011;41744;52.404;16.942;2022-08-20T05:49:53;30.40;;;20.25;;
55815;SDS011;41744;52.404;16.942;2022-08-20T05:52:19;37.17;;;22.80;;
55815;SDS011;41744;52.404;16.942;2022-08-20T05:54:45;38.05;;;22.38;;
55815;SDS011;41744;52.404;16.942;2022-08-20T05:57:11;34.25;;;22.38;;
55815;SDS011;41744;52.404;16.942;2022-08-20T05:59:37;32.97;;;21.05;;
55815;SDS011;41744;52.404;16.942;2022-08-20T06:02:04;33.13;;;21.85;;
55815;SDS011;41744;52.404;16.942;2022-08-20T06:04:50;35.08;;;22.02;;
55815;SDS011;41744;52.404;16.942;2022-08-20T06:07:16;32.60;;;20.55;;
55815;SDS011;41744;52.404;16.942;2022-08-20T06:09:42;36.38;;;23.15;;
55815;SDS011;41744;52.404;16.942;2022-08-20T06:12:08;37.97;;;23.15;;
55815;SDS011;41744;52.404;16.942;2022-08-20T06:14:34;37.17;;;22.55;;
55815;SDS011;41744;52.404;16.942;2022-08-20T06:17:04;36.72;;;23.38;;
55815;SDS011;41744;52.404;16.942;2022-08-20T06:19:31;40.20;;;22.35;;
55815;SDS011;41744;52.404;16.942;2022-08-20T06:21:58;38.20;;;20.98;;
55815;SDS011;41744;52.404;16.942;2022-08-20T06:24:23;34.72;;;22.65;;
55815;SDS011;41744;52.404;16.942;2022-08-20T06:26:54;33.53;;;22.25;;
55815;SDS011;41744;52.404;16.942;2022-08-20T06:29:20;34.75;;;23.73;;
55815;SDS011;41744;52.404;16.942;2022-08-20T06:31:46;35.75;;;22.77;;
55815;SDS011;41744;52.404;16.942;2022-08-20T06:34:12;43.70;;;22.83;;
55815;SDS011;41744;52.404;16.942;2022-08-20T06:36:38;37.05;;;22.33;;
55815;SDS011;41744;52.404;16.942;2022-08-20T06:39:04;38.38;;;22.38;;
55815;SDS011;41744;52.404;16.942;2022-08-20T06:41:30;36.35;;;22.35;;
55815;SDS011;41744;52.404;16.942;2022-08-20T06:43:57;34.97;;;22.33;;
55815;SDS011;41744;52.404;16.942;2022-08-20T06:46:24;35.17;;;21.98;;
55815;SDS011;41744;52.404;16.942;2022-08-20T06:48:50;36.63;;;23.25;;
55815;SDS011;41744;52.404;16.942;2022-08-20T06:51:16;41.92;;;23.65;;
55815;SDS011;41744;52.404;16.942;2022-08-20T06:53:42;37.95;;;22.35;;
55815;SDS011;41744;52.404;16.942;2022-08-20T06:56:08;38.35;;;23.38;;
55815;SDS011;41744;52.404;16.942;2022-08-20T06:58:35;36.80;;;23.58;;
55815;SDS011;41744;52.404;16.942;2022-08-20T07:01:01;44.28;;;27.15;;
55815;SDS011;41744;52.404;16.942;2022-08-20T07:03:27;36.17;;;24.15;;
55815;SDS011;41744;52.404;16.942;2022-08-20T07:05:53;34.30;;;22.58;;
55815;SDS011;41744;52.404;16.942;2022-08-20T07:08:19;40.50;;;20.45;;
55815;SDS011;41744;52.404;16.942;2022-08-20T07:10:46;36.55;;;21.65;;
55815;SDS011;41744;52.404;16.942;2022-08-20T07:13:13;38.58;;;24.20;;
55815;SDS011;41744;52.404;16.942;2022-08-20T07:15:40;34.40;;;21.42;;
55815;SDS011;41744;52.404;16.942;2022-08-20T07:18:06;38.67;;;22.65;;
55815;SDS011;41744;52.404;16.942;2022-08-20T07:20:34;33.95;;;22.08;;
55815;SDS011;41744;52.404;16.942;2022-08-20T07:23:00;31.80;;;20.48;;
55815;SDS011;41744;52.404;16.942;2022-08-20T07:25:27;34.90;;;21.90;;
55815;SDS011;41744;52.404;16.942;2022-08-20T07:27:57;35.92;;;21.65;;
55815;SDS011;41744;52.404;16.942;2022-08-20T07:30:25;37.13;;;21.52;;
55815;SDS011;41744;52.404;16.942;2022-08-20T07:33:10;35.72;;;20.45;;
55815;SDS011;41744;52.404;16.942;2022-08-20T07:35:39;34.38;;;20.52;;
55815;SDS011;41744;52.404;16.942;2022-08-20T07:38:05;34.90;;;22.08;;
55815;SDS011;41744;52.404;16.942;2022-08-20T07:40:33;35.30;;;21.85;;
55815;SDS011;41744;52.404;16.942;2022-08-20T07:42:59;37.47;;;24.08;;
55815;SDS011;41744;52.404;16.942;2022-08-20T07:45:26;41.15;;;22.00;;
55815;SDS011;41744;52.404;16.942;2022-08-20T07:47:53;34.40;;;21.13;;
55815;SDS011;41744;52.404;16.942;2022-08-20T07:50:21;38.35;;;22.63;;
55815;SDS011;41744;52.404;16.942;2022-08-20T07:52:47;33.45;;;21.50;;
55815;SDS011;41744;52.404;16.942;2022-08-20T07:55:16;39.97;;;21.77;;
55815;SDS011;41744;52.404;16.942;2022-08-20T07:57:43;34.10;;;21.58;;
55815;SDS011;41744;52.404;16.942;2022-08-20T08:00:11;35.38;;;20.77;;
55815;SDS011;41744;52.404;16.942;2022-08-20T08:02:37;37.05;;;20.25;;
55815;SDS011;41744;52.404;16.942;2022-08-20T08:05:04;32.17;;;19.50;;
55815;SDS011;41744;52.404;16.942;2022-08-20T08:07:30;34.45;;;21.63;;
55815;SDS011;41744;52.404;16.942;2022-08-20T08:09:57;38.42;;;22.52;;
55815;SDS011;41744;52.404;16.942;2022-08-20T08:12:23;38.50;;;23.75;;
55815;SDS011;41744;52.404;16.942;2022-08-20T08:14:52;42.28;;;27.92;;
55815;SDS011;41744;52.404;16.942;2022-08-20T08:17:19;47.33;;;26.45;;
55815;SDS011;41744;52.404;16.942;2022-08-20T08:19:46;39.35;;;27.35;;
55815;SDS011;41744;52.404;16.942;2022-08-20T08:22:14;37.85;;;25.27;;
55815;SDS011;41744;52.404;16.942;2022-08-20T08:24:41;40.17;;;25.80;;
55815;SDS011;41744;52.404;16.942;2022-08-20T08:27:07;37.88;;;24.00;;
55815;SDS011;41744;52.404;16.942;2022-08-20T08:29:36;36.95;;;22.27;;
55815;SDS011;41744;52.404;16.942;2022-08-20T08:32:03;31.20;;;21.00;;
55815;SDS011;41744;52.404;16.942;2022-08-20T08:34:33;32.03;;;21.08;;
55815;SDS011;41744;52.404;16.942;2022-08-20T08:36:59;30.35;;;20.63;;
55815;SDS011;41744;52.404;16.942;2022-08-20T08:39:27;31.17;;;20.90;;
55815;SDS011;41744;52.404;16.942;2022-08-20T08:41:54;31.08;;;20.80;;
55815;SDS011;41744;52.404;16.942;2022-08-20T08:44:26;30.70;;;21.00;;
55815;SDS011;41744;52.404;16.942;2022-08-20T08:47:10;33.83;;;21.33;;
55815;SDS011;41744;52.404;16.942;2022-08-20T08:49:42;31.95;;;20.60;;
55815;SDS011;41744;52.404;16.942;2022-08-20T08:52:10;29.80;;;19.70;;
55815;SDS011;41744;52.404;16.942;2022-08-20T08:54:38;27.00;;;19.58;;
55815;SDS011;41744;52.404;16.942;2022-08-20T08:57:07;28.48;;;19.77;;
55815;SDS011;41744;52.404;16.942;2022-08-20T08:59:34;26.60;;;19.17;;
55815;SDS011;41744;52.404;16.942;2022-08-20T09:02:00;30.42;;;19.65;;
55815;SDS011;41744;52.404;16.942;2022-08-20T09:04:37;26.55;;;19.30;;
55815;SDS011;41744;52.404;16.942;2022-08-20T09:07:03;29.30;;;20.60;;
55815;SDS011;41744;52.404;16.942;2022-08-20T09:09:34;33.67;;;22.00;;
55815;SDS011;41744;52.404;16.942;2022-08-20T09:12:02;29.88;;;20.35;;
55815;SDS011;41744;52.404;16.942;2022-08-20T09:14:28;35.00;;;20.58;;
55815;SDS011;41744;52.404;16.942;2022-08-20T09:16:54;29.83;;;20.98;;
55815;SDS011;41744;52.404;16.942;2022-08-20T09:19:20;36.67;;;21.70;;
55815;SDS011;41744;52.404;16.942;2022-08-20T09:21:46;32.13;;;20.95;;
55815;SDS011;41744;52.404;16.942;2022-08-20T09:24:12;33.42;;;21.30;;
55815;SDS011;41744;52.404;16.942;2022-08-20T09:26:39;30.52;;;20.58;;
55815;SDS011;41744;52.404;16.942;2022-08-20T09:29:05;31.70;;;20.80;;
55815;SDS011;41744;52.404;16.942;2022-08-20T09:31:31;30.30;;;20.33;;
55815;SDS011;41744;52.404;16.942;2022-08-20T09:33:57;28.48;;;18.63;;
55815;SDS011;41744;52.404;16.942;2022-08-20T09:36:23;31.10;;;20.58;;
55815;SDS011;41744;52.404;16.942;2022-08-20T09:38:49;32.83;;;21.08;;
55815;SDS011;41744;52.404;16.942;2022-08-20T09:41:15;32.50;;;20.00;;
55815;SDS011;41744;52.404;16.942;2022-08-20T09:43:41;28.73;;;19.35;;
55815;SDS011;41744;52.404;16.942;2022-08-20T09:46:07;30.55;;;20.60;;
55815;SDS011;41744;52.404;16.942;2022-08-20T09:48:33;29.13;;;20.00;;
55815;SDS011;41744;52.404;16.942;2022-08-20T09:50:59;29.17;;;20.02;;
55815;SDS011;41744;52.404;16.942;2022-08-20T09:53:25;30.83;;;20.42;;
55815;SDS011;41744;52.404;16.942;2022-08-20T09:55:51;31.52;;;20.73;;
55815;SDS011;41744;52.404;16.942;2022-08-20T09:58:22;31.13;;;21.10;;
55815;SDS011;41744;52.404;16.942;2022-08-20T10:00:49;32.90;;;19.67;;
55815;SDS011;41744;52.404;16.942;2022-08-20T10:03:15;30.02;;;20.48;;
55815;SDS011;41744;52.404;16.942;2022-08-20T10:05:41;30.20;;;19.98;;
55815;SDS011;41744;52.404;16.942;2022-08-20T10:08:08;33.30;;;19.83;;
55815;SDS011;41744;52.404;16.942;2022-08-20T10:10:35;29.60;;;19.98;;
55815;SDS011;41744;52.404;16.942;2022-08-20T10:13:01;27.33;;;18.85;;
55815;SDS011;41744;52.404;16.942;2022-08-20T10:15:27;30.50;;;19.83;;
55815;SDS011;41744;52.404;16.942;2022-08-20T10:17:53;32.42;;;20.55;;
55815;SDS011;41744;52.404;16.942;2022-08-20T10:20:21;28.95;;;19.00;;
55815;SDS011;41744;52.404;16.942;2022-08-20T10:22:47;33.55;;;20.63;;
55815;SDS011;41744;52.404;16.942;2022-08-20T10:25:13;29.30;;;20.25;;
55815;SDS011;41744;52.404;16.942;2022-08-20T10:27:40;30.08;;;19.80;;
55815;SDS011;41744;52.404;16.942;2022-08-20T10:30:07;32.80;;;19.88;;
55815;SDS011;41744;52.404;16.942;2022-08-20T10:32:33;27.13;;;19.58;;
55815;SDS011;41744;52.404;16.942;2022-08-20T10:34:59;27.45;;;19.05;;
55815;SDS011;41744;52.404;16.942;2022-08-20T10:37:25;30.58;;;19.92;;
55815;SDS011;41744;52.404;16.942;2022-08-20T10:39:51;32.00;;;20.35;;
55815;SDS011;41744;52.404;16.942;2022-08-20T10:42:17;31.48;;;20.23;;
55815;SDS011;41744;52.404;16.942;2022-08-20T10:44:43;27.45;;;18.88;;
55815;SDS011;41744;52.404;16.942;2022-08-20T10:49:42;29.75;;;19.38;;
55815;SDS011;41744;52.404;16.942;2022-08-20T10:52:08;28.35;;;19.08;;
55815;SDS011;41744;52.404;16.942;2022-08-20T10:54:34;30.27;;;20.25;;
55815;SDS011;41744;52.404;16.942;2022-08-20T10:57:00;32.83;;;20.27;;
55815;SDS011;41744;52.404;16.942;2022-08-20T10:59:27;32.20;;;20.05;;
55815;SDS011;41744;52.404;16.942;2022-08-20T11:01:53;30.08;;;19.45;;
55815;SDS011;41744;52.404;16.942;2022-08-20T11:04:19;38.35;;;19.73;;
55815;SDS011;41744;52.404;16.942;2022-08-20T11:06:45;29.48;;;19.52;;
55815;SDS011;41744;52.404;16.942;2022-08-20T11:09:11;26.23;;;19.05;;
55815;SDS011;41744;52.404;16.942;2022-08-20T11:11:37;26.88;;;18.75;;
55815;SDS011;41744;52.404;16.942;2022-08-20T11:14:03;32.13;;;20.13;;
55815;SDS011;41744;52.404;16.942;2022-08-20T11:16:29;30.42;;;19.52;;
55815;SDS011;41744;52.404;16.942;2022-08-20T11:18:55;27.67;;;18.92;;
55815;SDS011;41744;52.404;16.942;2022-08-20T11:21:21;26.63;;;19.00;;
55815;SDS011;41744;52.404;16.942;2022-08-20T11:23:47;29.77;;;19.60;;
55815;SDS011;41744;52.404;16.942;2022-08-20T11:26:17;26.33;;;19.25;;
55815;SDS011;41744;52.404;16.942;2022-08-20T11:28:44;30.75;;;19.60;;
55815;SDS011;41744;52.404;16.942;2022-08-20T11:31:10;31.70;;;19.30;;
55815;SDS011;41744;52.404;16.942;2022-08-20T11:33:36;27.27;;;18.48;;
55815;SDS011;41744;52.404;16.942;2022-08-20T11:36:02;30.52;;;19.20;;
55815;SDS011;41744;52.404;16.942;2022-08-20T11:38:29;46.30;;;20.13;;
55815;SDS011;41744;52.404;16.942;2022-08-20T11:40:55;110.90;;;29.52;;
55815;SDS011;41744;52.404;16.942;2022-08-20T11:43:21;105.75;;;30.85;;
55815;SDS011;41744;52.404;16.942;2022-08-20T11:45:48;77.78;;;27.00;;
55815;SDS011;41744;52.404;16.942;2022-08-20T11:48:15;33.97;;;19.33;;
55815;SDS011;41744;52.404;16.942;2022-08-20T11:50:41;32.85;;;18.88;;
55815;SDS011;41744;52.404;16.942;2022-08-20T11:53:07;35.25;;;18.83;;
55815;SDS011;41744;52.404;16.942;2022-08-20T11:55:33;30.83;;;17.55;;
55815;SDS011;41744;52.404;16.942;2022-08-20T11:57:59;30.48;;;17.63;;
55815;SDS011;41744;52.404;16.942;2022-08-20T12:00:26;27.05;;;18.35;;
55815;SDS011;41744;52.404;16.942;2022-08-20T12:02:52;26.77;;;18.20;;
55815;SDS011;41744;52.404;16.942;2022-08-20T12:05:18;28.67;;;18.13;;
55815;SDS011;41744;52.404;16.942;2022-08-20T12:07:44;26.33;;;18.17;;
55815;SDS011;41744;52.404;16.942;2022-08-20T12:10:11;32.65;;;18.27;;
55815;SDS011;41744;52.404;16.942;2022-08-20T12:12:37;27.17;;;18.65;;
55815;SDS011;41744;52.404;16.942;2022-08-20T12:15:04;32.67;;;18.60;;
55815;SDS011;41744;52.404;16.942;2022-08-20T12:17:31;26.55;;;17.70;;
55815;SDS011;41744;52.404;16.942;2022-08-20T12:19:58;27.02;;;17.92;;
55815;SDS011;41744;52.404;16.942;2022-08-20T12:22:24;28.75;;;17.73;;
55815;SDS011;41744;52.404;16.942;2022-08-20T12:24:51;30.23;;;18.58;;
55815;SDS011;41744;52.404;16.942;2022-08-20T12:27:18;28.35;;;16.95;;
55815;SDS011;41744;52.404;16.942;2022-08-20T12:29:46;28.15;;;17.98;;
55815;SDS011;41744;52.404;16.942;2022-08-20T12:32:12;29.88;;;17.27;;
55815;SDS011;41744;52.404;16.942;2022-08-20T12:34:38;27.92;;;18.02;;
55815;SDS011;41744;52.404;16.942;2022-08-20T12:37:09;22.95;;;16.50;;
55815;SDS011;41744;52.404;16.942;2022-08-20T12:39:39;27.02;;;17.58;;
55815;SDS011;41744;52.404;16.942;2022-08-20T12:42:05;32.75;;;18.75;;
55815;SDS011;41744;52.404;16.942;2022-08-20T12:44:32;26.95;;;18.27;;
55815;SDS011;41744;52.404;16.942;2022-08-20T12:47:07;30.38;;;17.77;;
55815;SDS011;41744;52.404;16.942;2022-08-20T12:49:34;28.27;;;17.63;;
55815;SDS011;41744;52.404;16.942;2022-08-20T12:52:00;29.35;;;17.83;;
55815;SDS011;41744;52.404;16.942;2022-08-20T12:54:26;27.55;;;17.95;;
55815;SDS011;41744;52.404;16.942;2022-08-20T12:56:52;28.55;;;17.98;;
55815;SDS011;41744;52.404;16.942;2022-08-20T12:59:20;27.65;;;18.83;;
55815;SDS011;41744;52.404;16.942;2022-08-20T13:01:47;26.92;;;18.80;;
55815;SDS011;41744;52.404;16.942;2022-08-20T13:04:13;28.25;;;19.02;;
55815;SDS011;41744;52.404;16.942;2022-08-20T13:06:39;28.17;;;19.20;;
55815;SDS011;41744;52.404;16.942;2022-08-20T13:09:05;29.38;;;18.90;;
55815;SDS011;41744;52.404;16.942;2022-08-20T13:11:31;31.88;;;20.05;;
55815;SDS011;41744;52.404;16.942;2022-08-20T13:13:57;32.65;;;20.17;;
55815;SDS011;41744;52.404;16.942;2022-08-20T13:16:23;32.42;;;19.67;;
55815;SDS011;41744;52.404;16.942;2022-08-20T13:18:49;29.38;;;20.05;;
55815;SDS011;41744;52.404;16.942;2022-08-20T13:21:15;31.33;;;21.23;;
55815;SDS011;41744;52.404;16.942;2022-08-20T13:23:41;33.08;;;19.83;;
55815;SDS011;41744;52.404;16.942;2022-08-20T13:26:07;29.50;;;20.00;;
55815;SDS011;41744;52.404;16.942;2022-08-20T13:28:33;30.63;;;19.60;;
55815;SDS011;41744;52.404;16.942;2022-08-20T13:30:59;32.85;;;19.70;;
55815;SDS011;41744;52.404;16.942;2022-08-20T13:33:26;32.28;;;20.00;;
55815;SDS011;41744;52.404;16.942;2022-08-20T13:35:52;28.23;;;19.38;;
55815;SDS011;41744;52.404;16.942;2022-08-20T13:38:18;31.08;;;19.48;;
55815;SDS011;41744;52.404;16.942;2022-08-20T13:40:44;29.33;;;19.85;;
55815;SDS011;41744;52.404;16.942;2022-08-20T13:43:11;33.63;;;20.08;;
55815;SDS011;41744;52.404;16.942;2022-08-20T13:45:37;27.45;;;19.02;;
55815;SDS011;41744;52.404;16.942;2022-08-20T13:48:03;29.88;;;18.80;;
55815;SDS011;41744;52.404;16.942;2022-08-20T13:50:30;30.65;;;19.58;;
55815;SDS011;41744;52.404;16.942;2022-08-20T13:52:56;29.50;;;19.27;;
55815;SDS011;41744;52.404;16.942;2022-08-20T13:55:23;29.48;;;19.05;;
55815;SDS011;41744;52.404;16.942;2022-08-20T13:57:49;29.83;;;19.38;;
55815;SDS011;41744;52.404;16.942;2022-08-20T14:00:23;32.05;;;18.83;;
55815;SDS011;41744;52.404;16.942;2022-08-20T14:02:49;32.53;;;18.98;;
55815;SDS011;41744;52.404;16.942;2022-08-20T14:05:15;27.90;;;18.10;;
55815;SDS011;41744;52.404;16.942;2022-08-20T14:07:42;28.30;;;18.40;;
55815;SDS011;41744;52.404;16.942;2022-08-20T14:10:09;25.00;;;17.80;;
55815;SDS011;41744;52.404;16.942;2022-08-20T14:12:35;30.65;;;18.23;;
55815;SDS011;41744;52.404;16.942;2022-08-20T14:15:02;29.52;;;19.05;;